sensor_id;sensor_type;location;lat;lon;timestamp;P1;durP1;ratioP1;P2;durP2;ratioP2
4027;SDS011;2028;51.346;12.396;2022-11-20T00:01:04;22.08;;;19.98;;
4027;SDS011;2028;51.346;12.396;2022-11-20T00:03:31;21.13;;;19.10;;
4027;SDS011;2028;51.346;12.396;2022-11-20T00:06:08;20.70;;;18.80;;
4027;SDS011;2028;51.346;12.396;2022-11-20T00:08:35;23.30;;;21.02;;
4027;SDS011;2028;51.346;12.396;2022-11-20T00:13:32;23.65;;;21.25;;
4027;SDS011;2028;51.346;12.396;2022-11-20T00:15:59;23.20;;;21.00;;
4027;SDS011;2028;51.346;12.396;2022-11-20T00:18:26;23.10;;;20.75;;
4027;SDS011;2028;51.346;12.396;2022-11-20T00:20:52;23.67;;;21.27;;
4027;SDS011;2028;51.346;12.396;2022-11-20T00:23:19;23.98;;;21.38;;
4027;SDS011;2028;51.346;12.396;2022-11-20T00:25:45;23.75;;;21.42;;
4027;SDS011;2028;51.346;12.396;2022-11-20T00:28:11;23.13;;;20.90;;
4027;SDS011;2028;51.346;12.396;2022-11-20T00:30:38;22.52;;;20.25;;
4027;SDS011;2028;51.346;12.396;2022-11-20T00:33:04;23.63;;;21.25;;
4027;SDS011;2028;51.346;12.396;2022-11-20T00:35:31;26.10;;;23.50;;
4027;SDS011;2028;51.346;12.396;2022-11-20T00:37:56;35.43;;;29.67;;
4027;SDS011;2028;51.346;12.396;2022-11-20T00:40:23;25.92;;;23.38;;
4027;SDS011;2028;51.346;12.396;2022-11-20T00:42:49;24.58;;;22.13;;
4027;SDS011;2028;51.346;12.396;2022-11-20T00:45:15;24.13;;;21.83;;
4027;SDS011;2028;51.346;12.396;2022-11-20T00:47:42;24.40;;;22.00;;
4027;SDS011;2028;51.346;12.396;2022-11-20T00:50:08;25.40;;;22.90;;
4027;SDS011;2028;51.346;12.396;2022-11-20T00:52:34;24.88;;;22.33;;
4027;SDS011;2028;51.346;12.396;2022-11-20T00:55:01;24.85;;;22.25;;
4027;SDS011;2028;51.346;12.396;2022-11-20T00:57:27;24.63;;;22.05;;
4027;SDS011;2028;51.346;12.396;2022-11-20T00:59:53;25.33;;;22.27;;
4027;SDS011;2028;51.346;12.396;2022-11-20T01:02:20;24.95;;;22.58;;
4027;SDS011;2028;51.346;12.396;2022-11-20T01:04:46;25.33;;;22.80;;
4027;SDS011;2028;51.346;12.396;2022-11-20T01:07:12;24.70;;;22.20;;
4027;SDS011;2028;51.346;12.396;2022-11-20T01:09:38;23.52;;;21.17;;
4027;SDS011;2028;51.346;12.396;2022-11-20T01:12:06;25.50;;;23.00;;
4027;SDS011;2028;51.346;12.396;2022-11-20T01:14:33;24.23;;;21.77;;
4027;SDS011;2028;51.346;12.396;2022-11-20T01:16:59;24.73;;;22.33;;
4027;SDS011;2028;51.346;12.396;2022-11-20T01:19:26;23.83;;;21.42;;
4027;SDS011;2028;51.346;12.396;2022-11-20T01:21:53;24.27;;;21.92;;
4027;SDS011;2028;51.346;12.396;2022-11-20T01:24:20;24.92;;;22.50;;
4027;SDS011;2028;51.346;12.396;2022-11-20T01:26:47;27.42;;;24.40;;
4027;SDS011;2028;51.346;12.396;2022-11-20T01:29:15;26.95;;;24.33;;
4027;SDS011;2028;51.346;12.396;2022-11-20T01:31:42;26.23;;;23.58;;
4027;SDS011;2028;51.346;12.396;2022-11-20T01:34:13;27.67;;;24.02;;
4027;SDS011;2028;51.346;12.396;2022-11-20T01:36:41;28.10;;;25.30;;
4027;SDS011;2028;51.346;12.396;2022-11-20T01:39:15;27.88;;;25.38;;
4027;SDS011;2028;51.346;12.396;2022-11-20T01:41:42;25.13;;;22.58;;
4027;SDS011;2028;51.346;12.396;2022-11-20T01:44:48;26.67;;;23.77;;
4027;SDS011;2028;51.346;12.396;2022-11-20T01:47:16;24.63;;;22.23;;
4027;SDS011;2028;51.346;12.396;2022-11-20T01:49:48;25.90;;;23.13;;
4027;SDS011;2028;51.346;12.396;2022-11-20T01:52:46;26.90;;;24.20;;
4027;SDS011;2028;51.346;12.396;2022-11-20T01:55:28;27.35;;;24.65;;
4027;SDS011;2028;51.346;12.396;2022-11-20T01:57:56;26.50;;;23.83;;
4027;SDS011;2028;51.346;12.396;2022-11-20T02:00:24;26.10;;;23.50;;
4027;SDS011;2028;51.346;12.396;2022-11-20T02:02:51;26.35;;;23.75;;
4027;SDS011;2028;51.346;12.396;2022-11-20T02:05:27;25.60;;;23.20;;
4027;SDS011;2028;51.346;12.396;2022-11-20T02:07:54;25.98;;;23.42;;
4027;SDS011;2028;51.346;12.396;2022-11-20T02:10:22;25.40;;;22.83;;
4027;SDS011;2028;51.346;12.396;2022-11-20T02:12:48;26.98;;;24.27;;
4027;SDS011;2028;51.346;12.396;2022-11-20T02:15:33;27.98;;;25.20;;
4027;SDS011;2028;51.346;12.396;2022-11-20T02:17:59;26.95;;;24.25;;
4027;SDS011;2028;51.346;12.396;2022-11-20T02:20:25;27.98;;;25.17;;
4027;SDS011;2028;51.346;12.396;2022-11-20T02:23:03;26.15;;;23.35;;
4027;SDS011;2028;51.346;12.396;2022-11-20T02:25:30;28.13;;;25.20;;
4027;SDS011;2028;51.346;12.396;2022-11-20T02:27:58;27.85;;;24.95;;
4027;SDS011;2028;51.346;12.396;2022-11-20T02:30:24;28.38;;;25.38;;
4027;SDS011;2028;51.346;12.396;2022-11-20T02:32:51;28.42;;;25.52;;
4027;SDS011;2028;51.346;12.396;2022-11-20T02:37:43;29.37;;;26.27;;
4027;SDS011;2028;51.346;12.396;2022-11-20T02:40:10;30.42;;;27.27;;
4027;SDS011;2028;51.346;12.396;2022-11-20T02:42:37;30.70;;;26.17;;
4027;SDS011;2028;51.346;12.396;2022-11-20T02:45:04;30.63;;;27.42;;
4027;SDS011;2028;51.346;12.396;2022-11-20T02:47:30;30.70;;;27.48;;
4027;SDS011;2028;51.346;12.396;2022-11-20T02:49:57;28.35;;;25.33;;
4027;SDS011;2028;51.346;12.396;2022-11-20T02:52:24;30.25;;;27.02;;
4027;SDS011;2028;51.346;12.396;2022-11-20T02:54:50;33.17;;;28.05;;
4027;SDS011;2028;51.346;12.396;2022-11-20T02:57:17;31.17;;;27.65;;
4027;SDS011;2028;51.346;12.396;2022-11-20T02:59:43;31.77;;;28.38;;
4027;SDS011;2028;51.346;12.396;2022-11-20T03:02:09;32.47;;;27.80;;
4027;SDS011;2028;51.346;12.396;2022-11-20T03:04:35;32.67;;;29.10;;
4027;SDS011;2028;51.346;12.396;2022-11-20T03:07:02;33.40;;;28.95;;
4027;SDS011;2028;51.346;12.396;2022-11-20T03:09:29;31.25;;;26.73;;
4027;SDS011;2028;51.346;12.396;2022-11-20T03:11:55;32.22;;;28.17;;
4027;SDS011;2028;51.346;12.396;2022-11-20T03:14:21;34.15;;;28.92;;
4027;SDS011;2028;51.346;12.396;2022-11-20T03:16:47;33.17;;;29.13;;
4027;SDS011;2028;51.346;12.396;2022-11-20T03:19:13;34.10;;;30.20;;
4027;SDS011;2028;51.346;12.396;2022-11-20T03:21:39;34.42;;;28.92;;
4027;SDS011;2028;51.346;12.396;2022-11-20T03:24:06;34.10;;;30.60;;
4027;SDS011;2028;51.346;12.396;2022-11-20T03:26:33;36.17;;;31.48;;
4027;SDS011;2028;51.346;12.396;2022-11-20T03:29:00;36.50;;;32.55;;
4027;SDS011;2028;51.346;12.396;2022-11-20T03:31:29;35.67;;;31.85;;
4027;SDS011;2028;51.346;12.396;2022-11-20T03:33:57;35.45;;;30.13;;
4027;SDS011;2028;51.346;12.396;2022-11-20T03:36:24;37.50;;;30.60;;
4027;SDS011;2028;51.346;12.396;2022-11-20T03:38:52;35.75;;;29.15;;
4027;SDS011;2028;51.346;12.396;2022-11-20T03:41:20;37.92;;;30.52;;
4027;SDS011;2028;51.346;12.396;2022-11-20T03:43:48;35.55;;;31.60;;
4027;SDS011;2028;51.346;12.396;2022-11-20T03:46:16;39.10;;;30.70;;
4027;SDS011;2028;51.346;12.396;2022-11-20T03:48:43;37.22;;;30.63;;
4027;SDS011;2028;51.346;12.396;2022-11-20T03:51:31;35.03;;;29.38;;
4027;SDS011;2028;51.346;12.396;2022-11-20T03:53:56;40.25;;;32.05;;
4027;SDS011;2028;51.346;12.396;2022-11-20T03:56:24;34.35;;;29.48;;
4027;SDS011;2028;51.346;12.396;2022-11-20T03:58:51;37.97;;;30.48;;
4027;SDS011;2028;51.346;12.396;2022-11-20T04:01:18;39.95;;;31.67;;
4027;SDS011;2028;51.346;12.396;2022-11-20T04:03:45;36.30;;;31.13;;
4027;SDS011;2028;51.346;12.396;2022-11-20T04:06:22;37.97;;;31.88;;
4027;SDS011;2028;51.346;12.396;2022-11-20T04:08:50;35.33;;;30.05;;
4027;SDS011;2028;51.346;12.396;2022-11-20T04:11:17;37.65;;;30.80;;
4027;SDS011;2028;51.346;12.396;2022-11-20T04:13:48;40.00;;;31.10;;
4027;SDS011;2028;51.346;12.396;2022-11-20T04:16:16;34.20;;;30.38;;
4027;SDS011;2028;51.346;12.396;2022-11-20T04:18:42;38.40;;;31.17;;
4027;SDS011;2028;51.346;12.396;2022-11-20T04:21:09;38.28;;;30.80;;
4027;SDS011;2028;51.346;12.396;2022-11-20T04:23:36;35.10;;;29.73;;
4027;SDS011;2028;51.346;12.396;2022-11-20T04:26:10;39.10;;;32.83;;
4027;SDS011;2028;51.346;12.396;2022-11-20T04:28:37;37.45;;;31.38;;
4027;SDS011;2028;51.346;12.396;2022-11-20T04:31:08;34.67;;;30.38;;
4027;SDS011;2028;51.346;12.396;2022-11-20T04:33:35;36.10;;;30.45;;
4027;SDS011;2028;51.346;12.396;2022-11-20T04:36:04;36.17;;;31.02;;
4027;SDS011;2028;51.346;12.396;2022-11-20T04:38:31;35.95;;;31.88;;
4027;SDS011;2028;51.346;12.396;2022-11-20T04:40:58;36.05;;;32.15;;
4027;SDS011;2028;51.346;12.396;2022-11-20T04:43:25;35.13;;;30.23;;
4027;SDS011;2028;51.346;12.396;2022-11-20T04:45:52;35.55;;;31.80;;
4027;SDS011;2028;51.346;12.396;2022-11-20T04:48:19;37.58;;;31.80;;
4027;SDS011;2028;51.346;12.396;2022-11-20T04:50:45;34.40;;;30.70;;
4027;SDS011;2028;51.346;12.396;2022-11-20T04:53:11;33.25;;;29.75;;
4027;SDS011;2028;51.346;12.396;2022-11-20T04:55:37;34.35;;;30.75;;
4027;SDS011;2028;51.346;12.396;2022-11-20T04:58:03;36.70;;;31.80;;
4027;SDS011;2028;51.346;12.396;2022-11-20T05:00:30;35.35;;;31.55;;
4027;SDS011;2028;51.346;12.396;2022-11-20T05:02:56;34.13;;;30.48;;
4027;SDS011;2028;51.346;12.396;2022-11-20T05:05:22;32.58;;;29.05;;
4027;SDS011;2028;51.346;12.396;2022-11-20T05:07:48;35.28;;;29.65;;
4027;SDS011;2028;51.346;12.396;2022-11-20T05:10:15;37.55;;;32.60;;
4027;SDS011;2028;51.346;12.396;2022-11-20T05:12:41;35.30;;;31.25;;
4027;SDS011;2028;51.346;12.396;2022-11-20T05:15:08;32.78;;;29.35;;
4027;SDS011;2028;51.346;12.396;2022-11-20T05:17:34;33.08;;;29.42;;
4027;SDS011;2028;51.346;12.396;2022-11-20T05:20:01;33.00;;;28.70;;
4027;SDS011;2028;51.346;12.396;2022-11-20T05:22:27;33.97;;;30.25;;
4027;SDS011;2028;51.346;12.396;2022-11-20T05:24:53;35.83;;;32.03;;
4027;SDS011;2028;51.346;12.396;2022-11-20T05:27:19;38.17;;;31.38;;
4027;SDS011;2028;51.346;12.396;2022-11-20T05:29:46;35.47;;;31.63;;
4027;SDS011;2028;51.346;12.396;2022-11-20T05:32:13;37.53;;;31.52;;
4027;SDS011;2028;51.346;12.396;2022-11-20T05:34:40;33.67;;;28.85;;
4027;SDS011;2028;51.346;12.396;2022-11-20T05:37:06;35.78;;;30.42;;
4027;SDS011;2028;51.346;12.396;2022-11-20T05:39:33;37.17;;;29.33;;
4027;SDS011;2028;51.346;12.396;2022-11-20T05:41:59;37.55;;;31.23;;
4027;SDS011;2028;51.346;12.396;2022-11-20T05:44:44;35.13;;;31.38;;
4027;SDS011;2028;51.346;12.396;2022-11-20T05:47:10;34.23;;;29.67;;
4027;SDS011;2028;51.346;12.396;2022-11-20T05:49:36;36.40;;;29.23;;
4027;SDS011;2028;51.346;12.396;2022-11-20T05:52:02;38.72;;;30.50;;
4027;SDS011;2028;51.346;12.396;2022-11-20T05:54:28;40.25;;;31.30;;
4027;SDS011;2028;51.346;12.396;2022-11-20T05:56:54;35.35;;;30.23;;
4027;SDS011;2028;51.346;12.396;2022-11-20T05:59:21;33.28;;;28.70;;
4027;SDS011;2028;51.346;12.396;2022-11-20T06:01:47;35.63;;;30.83;;
4027;SDS011;2028;51.346;12.396;2022-11-20T06:04:13;39.88;;;30.92;;
4027;SDS011;2028;51.346;12.396;2022-11-20T06:06:39;37.53;;;29.35;;
4027;SDS011;2028;51.346;12.396;2022-11-20T06:09:06;38.35;;;32.35;;
4027;SDS011;2028;51.346;12.396;2022-11-20T06:11:32;34.25;;;28.27;;
4027;SDS011;2028;51.346;12.396;2022-11-20T06:13:59;33.67;;;30.02;;
4027;SDS011;2028;51.346;12.396;2022-11-20T06:16:25;35.22;;;30.17;;
4027;SDS011;2028;51.346;12.396;2022-11-20T06:18:52;35.45;;;31.63;;
4027;SDS011;2028;51.346;12.396;2022-11-20T06:21:18;34.67;;;29.80;;
4027;SDS011;2028;51.346;12.396;2022-11-20T06:23:45;35.05;;;30.80;;
4027;SDS011;2028;51.346;12.396;2022-11-20T06:26:12;36.42;;;31.90;;
4027;SDS011;2028;51.346;12.396;2022-11-20T06:28:41;35.60;;;31.73;;
4027;SDS011;2028;51.346;12.396;2022-11-20T06:31:07;37.03;;;30.83;;
4027;SDS011;2028;51.346;12.396;2022-11-20T06:33:36;37.95;;;32.03;;
4027;SDS011;2028;51.346;12.396;2022-11-20T06:36:03;34.55;;;29.50;;
4027;SDS011;2028;51.346;12.396;2022-11-20T06:38:30;39.13;;;31.67;;
4027;SDS011;2028;51.346;12.396;2022-11-20T06:40:56;36.90;;;32.88;;
4027;SDS011;2028;51.346;12.396;2022-11-20T06:43:22;36.50;;;31.35;;
4027;SDS011;2028;51.346;12.396;2022-11-20T06:45:56;39.13;;;30.83;;
4027;SDS011;2028;51.346;12.396;2022-11-20T06:48:23;41.45;;;32.53;;
4027;SDS011;2028;51.346;12.396;2022-11-20T06:50:50;39.05;;;32.55;;
4027;SDS011;2028;51.346;12.396;2022-11-20T06:53:17;36.45;;;30.65;;
4027;SDS011;2028;51.346;12.396;2022-11-20T06:55:43;40.00;;;31.42;;
4027;SDS011;2028;51.346;12.396;2022-11-20T06:58:10;34.15;;;29.33;;
4027;SDS011;2028;51.346;12.396;2022-11-20T07:00:36;35.33;;;29.52;;
4027;SDS011;2028;51.346;12.396;2022-11-20T07:03:07;36.90;;;30.58;;
4027;SDS011;2028;51.346;12.396;2022-11-20T07:05:36;36.70;;;30.63;;
4027;SDS011;2028;51.346;12.396;2022-11-20T07:08:03;33.20;;;28.73;;
4027;SDS011;2028;51.346;12.396;2022-11-20T07:10:30;35.92;;;31.38;;
4027;SDS011;2028;51.346;12.396;2022-11-20T07:12:56;36.42;;;31.33;;
4027;SDS011;2028;51.346;12.396;2022-11-20T07:15:24;35.88;;;29.90;;
4027;SDS011;2028;51.346;12.396;2022-11-20T07:17:50;34.15;;;29.02;;
4027;SDS011;2028;51.346;12.396;2022-11-20T07:20:17;38.35;;;30.13;;
4027;SDS011;2028;51.346;12.396;2022-11-20T07:22:43;35.92;;;29.83;;
4027;SDS011;2028;51.346;12.396;2022-11-20T07:25:09;33.05;;;29.42;;
4027;SDS011;2028;51.346;12.396;2022-11-20T07:27:36;33.40;;;29.00;;
4027;SDS011;2028;51.346;12.396;2022-11-20T07:30:03;33.30;;;28.00;;
4027;SDS011;2028;51.346;12.396;2022-11-20T07:32:29;32.13;;;28.58;;
4027;SDS011;2028;51.346;12.396;2022-11-20T07:34:55;32.50;;;29.00;;
4027;SDS011;2028;51.346;12.396;2022-11-20T07:37:22;31.92;;;27.40;;
4027;SDS011;2028;51.346;12.396;2022-11-20T07:39:48;31.00;;;27.10;;
4027;SDS011;2028;51.346;12.396;2022-11-20T07:42:14;30.90;;;26.97;;
4027;SDS011;2028;51.346;12.396;2022-11-20T07:44:41;29.48;;;26.33;;
4027;SDS011;2028;51.346;12.396;2022-11-20T07:47:07;29.80;;;26.60;;
4027;SDS011;2028;51.346;12.396;2022-11-20T07:49:33;29.67;;;26.40;;
4027;SDS011;2028;51.346;12.396;2022-11-20T07:51:59;30.90;;;27.42;;
4027;SDS011;2028;51.346;12.396;2022-11-20T07:54:25;29.17;;;26.10;;
4027;SDS011;2028;51.346;12.396;2022-11-20T07:56:52;30.27;;;27.08;;
4027;SDS011;2028;51.346;12.396;2022-11-20T07:59:18;28.80;;;25.73;;
4027;SDS011;2028;51.346;12.396;2022-11-20T08:01:44;28.38;;;25.58;;
4027;SDS011;2028;51.346;12.396;2022-11-20T08:04:10;50.93;;;45.73;;
4027;SDS011;2028;51.346;12.396;2022-11-20T08:06:36;48.42;;;43.50;;
4027;SDS011;2028;51.346;12.396;2022-11-20T08:09:02;34.63;;;31.03;;
4027;SDS011;2028;51.346;12.396;2022-11-20T08:11:29;27.63;;;24.73;;
4027;SDS011;2028;51.346;12.396;2022-11-20T08:14:14;28.25;;;25.40;;
4027;SDS011;2028;51.346;12.396;2022-11-20T08:16:41;28.15;;;25.15;;
4027;SDS011;2028;51.346;12.396;2022-11-20T08:19:08;28.55;;;24.85;;
4027;SDS011;2028;51.346;12.396;2022-11-20T08:21:34;26.75;;;24.05;;
4027;SDS011;2028;51.346;12.396;2022-11-20T08:24:01;27.10;;;24.30;;
4027;SDS011;2028;51.346;12.396;2022-11-20T08:26:27;26.13;;;23.35;;
4027;SDS011;2028;51.346;12.396;2022-11-20T08:28:54;25.13;;;22.55;;
4027;SDS011;2028;51.346;12.396;2022-11-20T08:31:21;25.92;;;23.13;;
4027;SDS011;2028;51.346;12.396;2022-11-20T08:33:48;26.13;;;23.42;;
4027;SDS011;2028;51.346;12.396;2022-11-20T08:36:15;26.95;;;24.00;;
4027;SDS011;2028;51.346;12.396;2022-11-20T08:38:41;25.70;;;23.10;;
4027;SDS011;2028;51.346;12.396;2022-11-20T08:41:07;25.52;;;22.92;;
4027;SDS011;2028;51.346;12.396;2022-11-20T08:43:49;26.13;;;21.38;;
4027;SDS011;2028;51.346;12.396;2022-11-20T08:46:16;24.60;;;22.02;;
4027;SDS011;2028;51.346;12.396;2022-11-20T08:48:42;23.65;;;21.25;;
4027;SDS011;2028;51.346;12.396;2022-11-20T08:51:09;25.63;;;22.90;;
4027;SDS011;2028;51.346;12.396;2022-11-20T08:53:35;25.50;;;22.52;;
4027;SDS011;2028;51.346;12.396;2022-11-20T08:56:02;24.92;;;22.08;;
4027;SDS011;2028;51.346;12.396;2022-11-20T08:58:28;23.58;;;21.08;;
4027;SDS011;2028;51.346;12.396;2022-11-20T09:00:54;26.45;;;21.92;;
4027;SDS011;2028;51.346;12.396;2022-11-20T09:03:21;24.52;;;21.90;;
4027;SDS011;2028;51.346;12.396;2022-11-20T09:05:48;25.17;;;21.98;;
4027;SDS011;2028;51.346;12.396;2022-11-20T09:08:14;131.85;;;95.80;;
4027;SDS011;2028;51.346;12.396;2022-11-20T09:10:40;39.00;;;34.78;;
4027;SDS011;2028;51.346;12.396;2022-11-20T09:13:07;25.00;;;22.30;;
4027;SDS011;2028;51.346;12.396;2022-11-20T09:15:33;24.58;;;21.42;;
4027;SDS011;2028;51.346;12.396;2022-11-20T09:18:00;23.05;;;20.42;;
4027;SDS011;2028;51.346;12.396;2022-11-20T09:20:28;27.55;;;23.67;;
4027;SDS011;2028;51.346;12.396;2022-11-20T09:22:55;24.63;;;21.23;;
4027;SDS011;2028;51.346;12.396;2022-11-20T09:25:22;22.92;;;20.63;;
4027;SDS011;2028;51.346;12.396;2022-11-20T09:27:54;23.10;;;19.58;;
4027;SDS011;2028;51.346;12.396;2022-11-20T09:30:20;24.13;;;21.63;;
4027;SDS011;2028;51.346;12.396;2022-11-20T09:32:47;23.38;;;21.02;;
4027;SDS011;2028;51.346;12.396;2022-11-20T09:35:13;22.13;;;19.73;;
4027;SDS011;2028;51.346;12.396;2022-11-20T09:37:40;21.65;;;19.35;;
4027;SDS011;2028;51.346;12.396;2022-11-20T09:40:06;21.90;;;19.55;;
4027;SDS011;2028;51.346;12.396;2022-11-20T09:48:18;21.55;;;19.27;;
4027;SDS011;2028;51.346;12.396;2022-11-20T09:53:30;23.80;;;21.10;;
4027;SDS011;2028;51.346;12.396;2022-11-20T09:56:19;77.75;;;61.97;;
4027;SDS011;2028;51.346;12.396;2022-11-20T09:58:50;20.85;;;18.65;;
4027;SDS011;2028;51.346;12.396;2022-11-20T10:01:18;19.92;;;17.23;;
4027;SDS011;2028;51.346;12.396;2022-11-20T10:03:50;19.38;;;17.38;;
4027;SDS011;2028;51.346;12.396;2022-11-20T10:06:18;20.73;;;18.52;;
4027;SDS011;2028;51.346;12.396;2022-11-20T10:08:50;18.85;;;16.95;;
4027;SDS011;2028;51.346;12.396;2022-11-20T10:11:30;19.92;;;17.88;;
4027;SDS011;2028;51.346;12.396;2022-11-20T10:26:58;23.17;;;20.60;;
4027;SDS011;2028;51.346;12.396;2022-11-20T10:29:36;21.23;;;19.02;;
4027;SDS011;2028;51.346;12.396;2022-11-20T10:32:04;20.50;;;18.40;;
4027;SDS011;2028;51.346;12.396;2022-11-20T10:37:13;20.92;;;18.73;;
4027;SDS011;2028;51.346;12.396;2022-11-20T10:39:51;19.88;;;17.77;;
4027;SDS011;2028;51.346;12.396;2022-11-20T10:42:38;19.98;;;17.98;;
4027;SDS011;2028;51.346;12.396;2022-11-20T10:47:40;18.33;;;16.38;;
4027;SDS011;2028;51.346;12.396;2022-11-20T10:50:09;19.48;;;17.48;;
4027;SDS011;2028;51.346;12.396;2022-11-20T10:52:44;19.55;;;17.55;;
4027;SDS011;2028;51.346;12.396;2022-11-20T10:55:25;17.92;;;16.13;;
4027;SDS011;2028;51.346;12.396;2022-11-20T10:58:22;18.13;;;16.15;;
4027;SDS011;2028;51.346;12.396;2022-11-20T11:00:51;17.30;;;15.50;;
4027;SDS011;2028;51.346;12.396;2022-11-20T11:03:27;15.50;;;14.00;;
4027;SDS011;2028;51.346;12.396;2022-11-20T11:05:55;16.65;;;14.95;;
4027;SDS011;2028;51.346;12.396;2022-11-20T11:08:24;16.17;;;14.57;;
4027;SDS011;2028;51.346;12.396;2022-11-20T11:10:57;16.15;;;14.45;;
4027;SDS011;2028;51.346;12.396;2022-11-20T11:13:25;16.05;;;14.45;;
4027;SDS011;2028;51.346;12.396;2022-11-20T11:15:52;14.32;;;12.93;;
4027;SDS011;2028;51.346;12.396;2022-11-20T11:18:26;15.85;;;14.25;;
4027;SDS011;2028;51.346;12.396;2022-11-20T11:20:52;17.10;;;15.30;;
4027;SDS011;2028;51.346;12.396;2022-11-20T11:23:33;91.60;;;68.28;;
4027;SDS011;2028;51.346;12.396;2022-11-20T11:26:00;34.70;;;30.92;;
4027;SDS011;2028;51.346;12.396;2022-11-20T11:28:27;17.02;;;15.30;;
4027;SDS011;2028;51.346;12.396;2022-11-20T11:30:54;15.20;;;13.80;;
4027;SDS011;2028;51.346;12.396;2022-11-20T11:33:22;15.13;;;13.55;;
4027;SDS011;2028;51.346;12.396;2022-11-20T11:35:56;14.25;;;12.85;;
4027;SDS011;2028;51.346;12.396;2022-11-20T11:40:59;14.27;;;12.88;;
4027;SDS011;2028;51.346;12.396;2022-11-20T11:43:27;13.90;;;12.50;;
4027;SDS011;2028;51.346;12.396;2022-11-20T11:54:58;13.82;;;12.48;;
4027;SDS011;2028;51.346;12.396;2022-11-20T11:57:43;12.80;;;11.52;;
4027;SDS011;2028;51.346;12.396;2022-11-20T12:00:14;14.40;;;13.00;;
4027;SDS011;2028;51.346;12.396;2022-11-20T12:07:43;13.98;;;12.68;;
4027;SDS011;2028;51.346;12.396;2022-11-20T12:13:01;13.73;;;12.27;;
4027;SDS011;2028;51.346;12.396;2022-11-20T12:15:33;13.32;;;12.02;;
4027;SDS011;2028;51.346;12.396;2022-11-20T12:17:59;13.68;;;12.25;;
4027;SDS011;2028;51.346;12.396;2022-11-20T12:20:28;14.27;;;12.82;;
4027;SDS011;2028;51.346;12.396;2022-11-20T12:23:02;13.75;;;12.43;;
4027;SDS011;2028;51.346;12.396;2022-11-20T12:25:31;13.82;;;12.40;;
4027;SDS011;2028;51.346;12.396;2022-11-20T12:30:59;13.57;;;12.27;;
4027;SDS011;2028;51.346;12.396;2022-11-20T12:33:36;13.95;;;12.63;;
4027;SDS011;2028;51.346;12.396;2022-11-20T12:36:14;13.50;;;12.23;;
4027;SDS011;2028;51.346;12.396;2022-11-20T12:44:16;13.23;;;12.02;;
4027;SDS011;2028;51.346;12.396;2022-11-20T12:49:37;19.58;;;17.60;;
4027;SDS011;2028;51.346;12.396;2022-11-20T12:52:29;13.52;;;12.30;;
4027;SDS011;2028;51.346;12.396;2022-11-20T12:55:13;15.07;;;13.65;;
4027;SDS011;2028;51.346;12.396;2022-11-20T12:57:49;14.18;;;12.77;;
4027;SDS011;2028;51.346;12.396;2022-11-20T13:00:20;14.13;;;12.73;;
4027;SDS011;2028;51.346;12.396;2022-11-20T13:02:58;14.27;;;12.88;;
4027;SDS011;2028;51.346;12.396;2022-11-20T13:08:18;14.85;;;13.25;;
4027;SDS011;2028;51.346;12.396;2022-11-20T13:10:55;15.40;;;13.90;;
4027;SDS011;2028;51.346;12.396;2022-11-20T13:18:55;16.58;;;14.88;;
4027;SDS011;2028;51.346;12.396;2022-11-20T13:21:44;15.63;;;14.02;;
4027;SDS011;2028;51.346;12.396;2022-11-20T13:29:30;13.93;;;12.48;;
4027;SDS011;2028;51.346;12.396;2022-11-20T13:34:32;14.55;;;13.13;;
4027;SDS011;2028;51.346;12.396;2022-11-20T13:36:59;14.90;;;13.30;;
4027;SDS011;2028;51.346;12.396;2022-11-20T13:39:29;14.00;;;12.60;;
4027;SDS011;2028;51.346;12.396;2022-11-20T13:44:28;14.48;;;12.90;;
4027;SDS011;2028;51.346;12.396;2022-11-20T13:46:55;14.68;;;13.18;;
4027;SDS011;2028;51.346;12.396;2022-11-20T13:49:26;18.75;;;16.33;;
4027;SDS011;2028;51.346;12.396;2022-11-20T13:55:16;14.25;;;12.85;;
4027;SDS011;2028;51.346;12.396;2022-11-20T14:00:24;13.43;;;12.23;;
4027;SDS011;2028;51.346;12.396;2022-11-20T14:05:33;13.23;;;11.93;;
4027;SDS011;2028;51.346;12.396;2022-11-20T14:08:02;12.15;;;11.05;;
4027;SDS011;2028;51.346;12.396;2022-11-20T14:10:29;12.48;;;11.27;;
4027;SDS011;2028;51.346;12.396;2022-11-20T14:12:56;12.43;;;11.23;;
4027;SDS011;2028;51.346;12.396;2022-11-20T14:15:27;12.50;;;11.35;;
4027;SDS011;2028;51.346;12.396;2022-11-20T14:17:54;12.30;;;11.20;;
4027;SDS011;2028;51.346;12.396;2022-11-20T14:20:20;13.63;;;12.32;;
4027;SDS011;2028;51.346;12.396;2022-11-20T14:22:51;13.45;;;12.15;;
4027;SDS011;2028;51.346;12.396;2022-11-20T14:27:44;13.80;;;12.50;;
4027;SDS011;2028;51.346;12.396;2022-11-20T14:30:12;14.05;;;12.65;;
4027;SDS011;2028;51.346;12.396;2022-11-20T14:32:40;13.95;;;12.55;;
4027;SDS011;2028;51.346;12.396;2022-11-20T14:35:08;14.23;;;12.82;;
4027;SDS011;2028;51.346;12.396;2022-11-20T14:37:38;14.10;;;12.70;;
4027;SDS011;2028;51.346;12.396;2022-11-20T14:40:20;14.57;;;13.18;;
4027;SDS011;2028;51.346;12.396;2022-11-20T14:42:47;14.70;;;13.20;;
4027;SDS011;2028;51.346;12.396;2022-11-20T14:45:14;14.68;;;13.27;;
4027;SDS011;2028;51.346;12.396;2022-11-20T14:47:40;15.13;;;13.73;;
4027;SDS011;2028;51.346;12.396;2022-11-20T14:50:15;15.65;;;14.05;;
4027;SDS011;2028;51.346;12.396;2022-11-20T14:52:49;15.52;;;13.98;;
4027;SDS011;2028;51.346;12.396;2022-11-20T14:55:27;15.15;;;13.65;;
4027;SDS011;2028;51.346;12.396;2022-11-20T14:57:54;15.85;;;14.27;;
4027;SDS011;2028;51.346;12.396;2022-11-20T15:00:21;15.85;;;14.32;;
4027;SDS011;2028;51.346;12.396;2022-11-20T15:02:48;15.80;;;14.20;;
4027;SDS011;2028;51.346;12.396;2022-11-20T15:05:17;15.85;;;14.30;;
4027;SDS011;2028;51.346;12.396;2022-11-20T15:07:45;17.33;;;15.50;;
4027;SDS011;2028;51.346;12.396;2022-11-20T15:12:55;16.65;;;14.95;;
4027;SDS011;2028;51.346;12.396;2022-11-20T15:15:32;15.52;;;13.93;;
4027;SDS011;2028;51.346;12.396;2022-11-20T15:17:59;16.98;;;15.27;;
4027;SDS011;2028;51.346;12.396;2022-11-20T15:20:28;18.83;;;16.90;;
4027;SDS011;2028;51.346;12.396;2022-11-20T15:22:56;16.65;;;15.05;;
4027;SDS011;2028;51.346;12.396;2022-11-20T15:25:22;17.63;;;15.83;;
4027;SDS011;2028;51.346;12.396;2022-11-20T15:27:58;17.15;;;15.38;;
4027;SDS011;2028;51.346;12.396;2022-11-20T15:30:25;16.65;;;15.00;;
4027;SDS011;2028;51.346;12.396;2022-11-20T15:32:51;17.45;;;15.75;;
4027;SDS011;2028;51.346;12.396;2022-11-20T15:35:18;17.67;;;15.60;;
4027;SDS011;2028;51.346;12.396;2022-11-20T15:37:44;18.52;;;16.63;;
4027;SDS011;2028;51.346;12.396;2022-11-20T15:40:10;17.17;;;15.48;;
4027;SDS011;2028;51.346;12.396;2022-11-20T15:42:37;15.75;;;14.15;;
4027;SDS011;2028;51.346;12.396;2022-11-20T15:45:03;17.33;;;15.53;;
4027;SDS011;2028;51.346;12.396;2022-11-20T15:47:30;17.75;;;15.95;;
4027;SDS011;2028;51.346;12.396;2022-11-20T15:49:58;17.58;;;15.75;;
4027;SDS011;2028;51.346;12.396;2022-11-20T15:52:24;18.93;;;17.03;;
4027;SDS011;2028;51.346;12.396;2022-11-20T15:54:51;19.45;;;17.45;;
4027;SDS011;2028;51.346;12.396;2022-11-20T15:57:18;18.23;;;16.42;;
4027;SDS011;2028;51.346;12.396;2022-11-20T15:59:44;45.92;;;39.85;;
4027;SDS011;2028;51.346;12.396;2022-11-20T16:02:11;29.60;;;26.20;;
4027;SDS011;2028;51.346;12.396;2022-11-20T16:04:37;19.70;;;17.67;;
4027;SDS011;2028;51.346;12.396;2022-11-20T16:07:04;19.67;;;17.70;;
4027;SDS011;2028;51.346;12.396;2022-11-20T16:09:30;18.55;;;16.58;;
4027;SDS011;2028;51.346;12.396;2022-11-20T16:11:56;18.23;;;16.42;;
4027;SDS011;2028;51.346;12.396;2022-11-20T16:14:26;18.23;;;16.42;;
4027;SDS011;2028;51.346;12.396;2022-11-20T16:17:12;19.05;;;17.15;;